MSC Levina — 3FJR8 — position and weather

sailwx.info

Track history (hours):
 
Tides and Currents Weather Stations Pressure Air Temp Water Temp Dewpoint Dewpoint Depression Visibility Wind Speed Wind Dir Waves Ship Positions

MSC Levina

Last reported at 2017-May-25 10:14 UTC. Time now 2017-May-26 01:52 UTC.
Position N 34°01' E 134°59'.

Length 227.6 m; beam 32.2 m; draft 12.1 m.

Type: Ship. MMSI: 355609000.

Date/timePositionNaut miles runAvg speedWind from/ knotsBaromVisibWave heightAir tempDewpointWater temp
2017-May-25 10:14N 34°01' E 134°59'416.6
2017-May-25 10:00N 34°05' E 134°59'816.8
2017-May-25 09:30N 34°13' E 134°58'812.6
2017-May-25 08:50N 34°21' E 135°00'515.8
2017-May-25 08:30N 34°25' E 135°04'917.4
2017-May-25 08:00N 34°31' E 135°12'816.2
2017-May-25 07:30N 34°36' E 135°20'5 9.2
2017-May-25 07:00N 34°39' E 135°24'0 0.1
2017-May-25 06:17N 34°39' E 135°24'0 0.0
2017-May-25 05:59N 34°39' E 135°24'0 0.0
2017-May-25 05:23N 34°39' E 135°24'0 0.0
2017-May-25 04:59N 34°39' E 135°24'0 0.0
2017-May-25 04:29N 34°39' E 135°24'0 0.0
2017-May-25 03:59N 34°39' E 135°24'0 0.0
2017-May-25 03:29N 34°39' E 135°24'0 0.0
2017-May-25 02:59N 34°39' E 135°24'0 0.0
2017-May-25 02:17N 34°39' E 135°24'0 0.0
2017-May-25 01:53N 34°39' E 135°24'0 0.0
2017-May-25 01:29N 34°39' E 135°24'0 0.0
2017-May-25 00:59N 34°39' E 135°24'0 0.0
2017-May-25 00:29N 34°39' E 135°24'0 0.0
2017-May-24 23:59N 34°39' E 135°24'0 0.0
2017-May-24 23:29N 34°39' E 135°24'0 0.0
2017-May-24 22:59N 34°39' E 135°24'2 3.2
2017-May-24 22:30N 34°38' E 135°23'4 7.2
2017-May-24 22:00N 34°36' E 135°19'4 8.8
2017-May-24 21:30N 34°39' E 135°15'1 1.6
2017-May-24 20:57N 34°40' E 135°14'0 0.0
2017-May-24 20:27N 34°40' E 135°14'0 0.0
2017-May-24 19:57N 34°40' E 135°14'0 0.0
2017-May-24 19:21N 34°40' E 135°14'0 0.0
2017-May-24 18:57N 34°40' E 135°14'0 0.0
2017-May-24 18:21N 34°40' E 135°14'0 0.0
2017-May-24 17:51N 34°40' E 135°14'0 0.0
2017-May-24 17:27N 34°40' E 135°14'0 0.0
2017-May-24 16:57N 34°40' E 135°14'0 0.0
2017-May-24 16:27N 34°40' E 135°14'0 0.0
2017-May-24 15:57N 34°40' E 135°14'0 0.0
2017-May-24 15:27N 34°40' E 135°14'0 0.0
2017-May-24 14:57N 34°40' E 135°14'0 0.0
2017-May-24 14:27N 34°40' E 135°14'0 0.0
2017-May-24 13:27N 34°40' E 135°14'0 0.0
2017-May-24 12:57N 34°40' E 135°14'0 0.0
2017-May-24 12:27N 34°40' E 135°14'0 0.0
2017-May-24 11:57N 34°40' E 135°14'0 0.0
2017-May-24 11:27N 34°40' E 135°14'0 0.0
2017-May-24 10:45N 34°40' E 135°14'0 0.0
2017-May-24 10:27N 34°40' E 135°14'0 0.0
2017-May-24 09:57N 34°40' E 135°14'0 0.0
2017-May-24 09:27N 34°40' E 135°14'0 0.0
2017-May-24 08:57N 34°40' E 135°14'0 0.1
2017-May-24 08:30N 34°40' E 135°14'2 3.8
2017-May-24 08:00N 34°39' E 135°16'611.6
2017-May-24 07:30N 34°33' E 135°14'714.4
2017-May-24 07:00N 34°28' E 135°09'917.1
2017-May-24 06:30N 34°21' E 135°02'815.4
2017-May-24 06:00N 34°14' E 134°59'611.5
2017-May-24 05:30N 34°08' E 134°60'4 7.9
2017-May-24 05:00N 34°04' E 134°60'  
2017-May-17 20:48N 35°10' E 139°45'412.5
2017-May-17 20:26N 35°14' E 139°46'512.2
2017-May-17 20:01N 35°19' E 139°43'713.2
2017-May-17 19:30N 35°25' E 139°43'3 5.2
2017-May-17 19:00N 35°28' E 139°42'0 0.0
2017-May-17 18:28N 35°28' E 139°42'0 0.0
2017-May-17 17:58N 35°28' E 139°42'0 0.0
2017-May-17 17:28N 35°28' E 139°42'0 0.1
2017-May-17 16:58N 35°28' E 139°42'0 0.1
2017-May-17 16:28N 35°28' E 139°42'0 0.0
2017-May-17 15:58N 35°28' E 139°42'0 0.0
2017-May-17 15:28N 35°28' E 139°42'0 0.0
2017-May-17 14:58N 35°28' E 139°42'0 0.0
2017-May-17 13:58N 35°28' E 139°42'0 0.1
2017-May-17 13:28N 35°28' E 139°42'0 0.0
2017-May-17 12:58N 35°28' E 139°42'0 0.1
2017-May-17 12:28N 35°28' E 139°42'0 0.0
2017-May-17 11:58N 35°28' E 139°42'0 0.0
2017-May-17 11:28N 35°28' E 139°42'0 0.0
2017-May-17 10:58N 35°28' E 139°42'0 0.0
2017-May-17 10:28N 35°28' E 139°42'0 0.0
2017-May-17 10:00N 35°28' E 139°42'1 1.4
2017-May-17 09:30N 35°28' E 139°42'3 5.9
2017-May-17 09:00N 35°27' E 139°46'5 9.6
2017-May-17 08:30N 35°30' E 139°51'611.5
2017-May-17 08:01N 35°35' E 139°47'1 2.7
2017-May-17 07:31N 35°36' E 139°47'0 0.0
2017-May-17 07:00N 35°36' E 139°47'0 0.0
2017-May-17 06:27N 35°36' E 139°47'0 0.0
2017-May-17 06:00N 35°36' E 139°47'0 0.0
2017-May-17 05:30N 35°36' E 139°47'0 0.0
2017-May-17 05:00N 35°37' E 139°47'0 0.0
2017-May-17 04:30N 35°36' E 139°47'0 0.0
2017-May-17 04:00N 35°36' E 139°47'0 0.0
2017-May-17 03:30N 35°36' E 139°47'0 0.0
2017-May-17 03:00N 35°36' E 139°47'0 0.0
2017-May-17 02:27N 35°36' E 139°47'0 0.1
2017-May-17 02:00N 35°36' E 139°47'0 0.1
2017-May-17 01:30N 35°36' E 139°47'0 0.0
2017-May-17 01:00N 35°36' E 139°47'0 0.0
2017-May-17 00:30N 35°36' E 139°47'0 0.0
2017-May-17 00:00N 35°36' E 139°47'0 0.0
2017-May-16 23:30N 35°36' E 139°47'0 0.0
2017-May-16 23:00N 35°36' E 139°47'2 3.6
2017-May-16 22:30N 35°35' E 139°48'612.8
2017-May-16 22:01N 35°30' E 139°52'815.2
2017-May-16 21:30N 35°24' E 139°46'612.1
2017-May-16 21:00N 35°18' E 139°45'611.9
2017-May-16 20:30N 35°12' E 139°47'4 9.0
2017-May-16 20:00N 35°08' E 139°47'3 5.5
2017-May-16 19:30N 35°05' E 139°46'4 7.4
2017-May-16 19:00N 35°02' E 139°43'4 8.2
2017-May-16 18:30N 34°59' E 139°39'  
Track history (hours):
 
Tides and Currents Weather Stations Pressure Air Temp Water Temp Dewpoint Dewpoint Depression Visibility Wind Speed Wind Dir Waves Ship Positions

MSC Levina

Last reported at 2017-May-25 10:14 UTC. Time now 2017-May-26 01:52 UTC.
Position N 34°01' E 134°59'.

Length 227.6 m; beam 32.2 m; draft 12.1 m.

Type: Ship. MMSI: 355609000.

Date/timePositionNaut miles runAvg speedWind from/ knotsBaromVisibWave heightAir tempDewpointWater temp
2017-May-25 10:14N 34°01' E 134°59'416.6
2017-May-25 10:00N 34°05' E 134°59'816.8
2017-May-25 09:30N 34°13' E 134°58'812.6
2017-May-25 08:50N 34°21' E 135°00'515.8
2017-May-25 08:30N 34°25' E 135°04'917.4
2017-May-25 08:00N 34°31' E 135°12'816.2
2017-May-25 07:30N 34°36' E 135°20'5 9.2
2017-May-25 07:00N 34°39' E 135°24'0 0.1
2017-May-25 06:17N 34°39' E 135°24'0 0.0
2017-May-25 05:59N 34°39' E 135°24'0 0.0
2017-May-25 05:23N 34°39' E 135°24'0 0.0
2017-May-25 04:59N 34°39' E 135°24'0 0.0
2017-May-25 04:29N 34°39' E 135°24'0 0.0
2017-May-25 03:59N 34°39' E 135°24'0 0.0
2017-May-25 03:29N 34°39' E 135°24'0 0.0
2017-May-25 02:59N 34°39' E 135°24'0 0.0
2017-May-25 02:17N 34°39' E 135°24'0 0.0
2017-May-25 01:53N 34°39' E 135°24'0 0.0
2017-May-25 01:29N 34°39' E 135°24'0 0.0
2017-May-25 00:59N 34°39' E 135°24'0 0.0
2017-May-25 00:29N 34°39' E 135°24'0 0.0
2017-May-24 23:59N 34°39' E 135°24'0 0.0
2017-May-24 23:29N 34°39' E 135°24'0 0.0
2017-May-24 22:59N 34°39' E 135°24'2 3.2
2017-May-24 22:30N 34°38' E 135°23'4 7.2
2017-May-24 22:00N 34°36' E 135°19'4 8.8
2017-May-24 21:30N 34°39' E 135°15'1 1.6
2017-May-24 20:57N 34°40' E 135°14'0 0.0
2017-May-24 20:27N 34°40' E 135°14'0 0.0
2017-May-24 19:57N 34°40' E 135°14'0 0.0
2017-May-24 19:21N 34°40' E 135°14'0 0.0
2017-May-24 18:57N 34°40' E 135°14'0 0.0
2017-May-24 18:21N 34°40' E 135°14'0 0.0
2017-May-24 17:51N 34°40' E 135°14'0 0.0
2017-May-24 17:27N 34°40' E 135°14'0 0.0
2017-May-24 16:57N 34°40' E 135°14'0 0.0
2017-May-24 16:27N 34°40' E 135°14'0 0.0
2017-May-24 15:57N 34°40' E 135°14'0 0.0
2017-May-24 15:27N 34°40' E 135°14'0 0.0
2017-May-24 14:57N 34°40' E 135°14'0 0.0
2017-May-24 14:27N 34°40' E 135°14'0 0.0
2017-May-24 13:27N 34°40' E 135°14'0 0.0
2017-May-24 12:57N 34°40' E 135°14'0 0.0
2017-May-24 12:27N 34°40' E 135°14'0 0.0
2017-May-24 11:57N 34°40' E 135°14'0 0.0
2017-May-24 11:27N 34°40' E 135°14'0 0.0
2017-May-24 10:45N 34°40' E 135°14'0 0.0
2017-May-24 10:27N 34°40' E 135°14'0 0.0
2017-May-24 09:57N 34°40' E 135°14'0 0.0
2017-May-24 09:27N 34°40' E 135°14'0 0.0
2017-May-24 08:57N 34°40' E 135°14'0 0.1
2017-May-24 08:30N 34°40' E 135°14'2 3.8
2017-May-24 08:00N 34°39' E 135°16'611.6
2017-May-24 07:30N 34°33' E 135°14'714.4
2017-May-24 07:00N 34°28' E 135°09'917.1
2017-May-24 06:30N 34°21' E 135°02'815.4
2017-May-24 06:00N 34°14' E 134°59'611.5
2017-May-24 05:30N 34°08' E 134°60'4 7.9
2017-May-24 05:00N 34°04' E 134°60'  
2017-May-17 20:48N 35°10' E 139°45'412.5
2017-May-17 20:26N 35°14' E 139°46'512.2
2017-May-17 20:01N 35°19' E 139°43'713.2
2017-May-17 19:30N 35°25' E 139°43'3 5.2
2017-May-17 19:00N 35°28' E 139°42'0 0.0
2017-May-17 18:28N 35°28' E 139°42'0 0.0
2017-May-17 17:58N 35°28' E 139°42'0 0.0
2017-May-17 17:28N 35°28' E 139°42'0 0.1
2017-May-17 16:58N 35°28' E 139°42'0 0.1
2017-May-17 16:28N 35°28' E 139°42'0 0.0
2017-May-17 15:58N 35°28' E 139°42'0 0.0
2017-May-17 15:28N 35°28' E 139°42'0 0.0
2017-May-17 14:58N 35°28' E 139°42'0 0.0
2017-May-17 13:58N 35°28' E 139°42'0 0.1
2017-May-17 13:28N 35°28' E 139°42'0 0.0
2017-May-17 12:58N 35°28' E 139°42'0 0.1
2017-May-17 12:28N 35°28' E 139°42'0 0.0
2017-May-17 11:58N 35°28' E 139°42'0 0.0
2017-May-17 11:28N 35°28' E 139°42'0 0.0
2017-May-17 10:58N 35°28' E 139°42'0 0.0
2017-May-17 10:28N 35°28' E 139°42'0 0.0
2017-May-17 10:00N 35°28' E 139°42'1 1.4
2017-May-17 09:30N 35°28' E 139°42'3 5.9
2017-May-17 09:00N 35°27' E 139°46'5 9.6
2017-May-17 08:30N 35°30' E 139°51'611.5
2017-May-17 08:01N 35°35' E 139°47'1 2.7
2017-May-17 07:31N 35°36' E 139°47'0 0.0
2017-May-17 07:00N 35°36' E 139°47'0 0.0
2017-May-17 06:27N 35°36' E 139°47'0 0.0
2017-May-17 06:00N 35°36' E 139°47'0 0.0
2017-May-17 05:30N 35°36' E 139°47'0 0.0
2017-May-17 05:00N 35°37' E 139°47'0 0.0
2017-May-17 04:30N 35°36' E 139°47'0 0.0
2017-May-17 04:00N 35°36' E 139°47'0 0.0
2017-May-17 03:30N 35°36' E 139°47'0 0.0
2017-May-17 03:00N 35°36' E 139°47'0 0.0
2017-May-17 02:27N 35°36' E 139°47'0 0.1
2017-May-17 02:00N 35°36' E 139°47'0 0.1
2017-May-17 01:30N 35°36' E 139°47'0 0.0
2017-May-17 01:00N 35°36' E 139°47'0 0.0
2017-May-17 00:30N 35°36' E 139°47'0 0.0
2017-May-17 00:00N 35°36' E 139°47'0 0.0
2017-May-16 23:30N 35°36' E 139°47'0 0.0
2017-May-16 23:00N 35°36' E 139°47'2 3.6
2017-May-16 22:30N 35°35' E 139°48'612.8
2017-May-16 22:01N 35°30' E 139°52'815.2
2017-May-16 21:30N 35°24' E 139°46'612.1
2017-May-16 21:00N 35°18' E 139°45'611.9
2017-May-16 20:30N 35°12' E 139°47'4 9.0
2017-May-16 20:00N 35°08' E 139°47'3 5.5
2017-May-16 19:30N 35°05' E 139°46'4 7.4
2017-May-16 19:00N 35°02' E 139°43'4 8.2
2017-May-16 18:30N 34°59' E 139°39'  

Dump ship's entire track history